sensor_id;sensor_type;location;lat;lon;timestamp;P1;durP1;ratioP1;P2;durP2;ratioP2
26113;SDS011;13966;48.828;9.064;2022-09-19T00:01:18;0.35;;;0.35;;
26113;SDS011;13966;48.828;9.064;2022-09-19T00:03:54;0.35;;;0.35;;
26113;SDS011;13966;48.828;9.064;2022-09-19T00:06:21;0.73;;;0.47;;
26113;SDS011;13966;48.828;9.064;2022-09-19T00:08:48;0.80;;;0.60;;
26113;SDS011;13966;48.828;9.064;2022-09-19T00:11:14;1.23;;;0.40;;
26113;SDS011;13966;48.828;9.064;2022-09-19T00:13:42;0.50;;;0.40;;
26113;SDS011;13966;48.828;9.064;2022-09-19T00:16:15;0.47;;;0.45;;
26113;SDS011;13966;48.828;9.064;2022-09-19T00:18:42;0.60;;;0.40;;
26113;SDS011;13966;48.828;9.064;2022-09-19T00:21:08;0.30;;;0.30;;
26113;SDS011;13966;48.828;9.064;2022-09-19T00:23:34;0.32;;;0.32;;
26113;SDS011;13966;48.828;9.064;2022-09-19T00:26:18;1.45;;;0.20;;
26113;SDS011;13966;48.828;9.064;2022-09-19T00:28:45;0.40;;;0.40;;
26113;SDS011;13966;48.828;9.064;2022-09-19T00:31:13;0.68;;;0.40;;
26113;SDS011;13966;48.828;9.064;2022-09-19T00:33:42;0.25;;;0.25;;
26113;SDS011;13966;48.828;9.064;2022-09-19T00:36:08;0.30;;;0.30;;
26113;SDS011;13966;48.828;9.064;2022-09-19T00:38:34;0.45;;;0.30;;
26113;SDS011;13966;48.828;9.064;2022-09-19T00:41:00;0.30;;;0.30;;
26113;SDS011;13966;48.828;9.064;2022-09-19T00:43:42;0.47;;;0.25;;
26113;SDS011;13966;48.828;9.064;2022-09-19T00:46:08;0.80;;;0.40;;
26113;SDS011;13966;48.828;9.064;2022-09-19T00:48:34;1.55;;;0.35;;
26113;SDS011;13966;48.828;9.064;2022-09-19T00:51:06;1.15;;;0.30;;
26113;SDS011;13966;48.828;9.064;2022-09-19T00:53:35;0.40;;;0.40;;
26113;SDS011;13966;48.828;9.064;2022-09-19T00:56:02;0.47;;;0.40;;
26113;SDS011;13966;48.828;9.064;2022-09-19T00:58:29;0.55;;;0.40;;
26113;SDS011;13966;48.828;9.064;2022-09-19T01:00:56;0.52;;;0.35;;
26113;SDS011;13966;48.828;9.064;2022-09-19T01:03:24;0.60;;;0.32;;
26113;SDS011;13966;48.828;9.064;2022-09-19T01:05:58;0.28;;;0.28;;
26113;SDS011;13966;48.828;9.064;2022-09-19T01:16:51;0.20;;;0.20;;
26113;SDS011;13966;48.828;9.064;2022-09-19T01:19:35;0.45;;;0.45;;
26113;SDS011;13966;48.828;9.064;2022-09-19T01:24:56;0.73;;;0.40;;
26113;SDS011;13966;48.828;9.064;2022-09-19T01:30:12;0.40;;;0.35;;
26113;SDS011;13966;48.828;9.064;2022-09-19T01:35:17;0.77;;;0.60;;
26113;SDS011;13966;48.828;9.064;2022-09-19T01:37:47;0.70;;;0.57;;
26113;SDS011;13966;48.828;9.064;2022-09-19T01:40:15;1.20;;;0.47;;
26113;SDS011;13966;48.828;9.064;2022-09-19T01:42:49;0.73;;;0.50;;
26113;SDS011;13966;48.828;9.064;2022-09-19T01:45:16;1.13;;;0.60;;
26113;SDS011;13966;48.828;9.064;2022-09-19T01:47:51;2.58;;;0.60;;
26113;SDS011;13966;48.828;9.064;2022-09-19T02:03:50;1.05;;;0.60;;
26113;SDS011;13966;48.828;9.064;2022-09-19T02:06:20;1.80;;;0.77;;
26113;SDS011;13966;48.828;9.064;2022-09-19T02:11:15;0.68;;;0.60;;
26113;SDS011;13966;48.828;9.064;2022-09-19T02:13:42;1.77;;;0.68;;
26113;SDS011;13966;48.828;9.064;2022-09-19T02:16:17;3.30;;;0.77;;
26113;SDS011;13966;48.828;9.064;2022-09-19T02:18:49;2.13;;;0.80;;
26113;SDS011;13966;48.828;9.064;2022-09-19T02:21:17;1.98;;;0.90;;
26113;SDS011;13966;48.828;9.064;2022-09-19T02:23:47;2.90;;;0.80;;
26113;SDS011;13966;48.828;9.064;2022-09-19T02:26:14;1.67;;;0.70;;
26113;SDS011;13966;48.828;9.064;2022-09-19T02:28:45;1.30;;;0.65;;
26113;SDS011;13966;48.828;9.064;2022-09-19T02:31:14;0.95;;;0.70;;
26113;SDS011;13966;48.828;9.064;2022-09-19T02:33:40;0.88;;;0.80;;
26113;SDS011;13966;48.828;9.064;2022-09-19T02:36:13;3.03;;;1.02;;
26113;SDS011;13966;48.828;9.064;2022-09-19T02:38:44;1.60;;;0.80;;
26113;SDS011;13966;48.828;9.064;2022-09-19T02:43:44;1.80;;;0.90;;
26113;SDS011;13966;48.828;9.064;2022-09-19T02:46:23;4.10;;;1.17;;
26113;SDS011;13966;48.828;9.064;2022-09-19T02:49:00;3.90;;;0.98;;
26113;SDS011;13966;48.828;9.064;2022-09-19T02:51:30;1.25;;;0.85;;
26113;SDS011;13966;48.828;9.064;2022-09-19T02:54:01;3.20;;;0.80;;
26113;SDS011;13966;48.828;9.064;2022-09-19T02:56:29;4.32;;;0.95;;
26113;SDS011;13966;48.828;9.064;2022-09-19T02:59:07;3.72;;;0.93;;
26113;SDS011;13966;48.828;9.064;2022-09-19T03:01:34;2.53;;;1.02;;
26113;SDS011;13966;48.828;9.064;2022-09-19T03:04:03;2.45;;;0.80;;
26113;SDS011;13966;48.828;9.064;2022-09-19T03:09:23;2.20;;;0.98;;
26113;SDS011;13966;48.828;9.064;2022-09-19T03:11:53;2.20;;;0.95;;
26113;SDS011;13966;48.828;9.064;2022-09-19T03:14:22;2.90;;;1.13;;
26113;SDS011;13966;48.828;9.064;2022-09-19T03:16:48;3.17;;;1.65;;
26113;SDS011;13966;48.828;9.064;2022-09-19T03:19:15;5.57;;;1.00;;
26113;SDS011;13966;48.828;9.064;2022-09-19T03:21:42;3.75;;;0.80;;
26113;SDS011;13966;48.828;9.064;2022-09-19T03:24:08;1.95;;;0.93;;
26113;SDS011;13966;48.828;9.064;2022-09-19T03:26:36;7.03;;;1.27;;
26113;SDS011;13966;48.828;9.064;2022-09-19T03:29:03;1.70;;;0.82;;
26113;SDS011;13966;48.828;9.064;2022-09-19T03:31:30;2.65;;;1.35;;
26113;SDS011;13966;48.828;9.064;2022-09-19T03:33:56;4.43;;;1.40;;
26113;SDS011;13966;48.828;9.064;2022-09-19T03:36:23;5.25;;;1.02;;
26113;SDS011;13966;48.828;9.064;2022-09-19T03:38:49;4.78;;;0.95;;
26113;SDS011;13966;48.828;9.064;2022-09-19T03:41:16;3.65;;;1.15;;
26113;SDS011;13966;48.828;9.064;2022-09-19T03:43:42;4.63;;;1.33;;
26113;SDS011;13966;48.828;9.064;2022-09-19T03:46:09;4.28;;;1.10;;
26113;SDS011;13966;48.828;9.064;2022-09-19T03:48:36;5.22;;;1.42;;
26113;SDS011;13966;48.828;9.064;2022-09-19T03:51:02;5.60;;;1.00;;
26113;SDS011;13966;48.828;9.064;2022-09-19T03:53:28;3.20;;;1.00;;
26113;SDS011;13966;48.828;9.064;2022-09-19T03:55:55;2.90;;;1.00;;
26113;SDS011;13966;48.828;9.064;2022-09-19T03:58:22;3.45;;;1.08;;
26113;SDS011;13966;48.828;9.064;2022-09-19T04:00:49;3.67;;;1.15;;
26113;SDS011;13966;48.828;9.064;2022-09-19T04:03:15;4.68;;;1.10;;
26113;SDS011;13966;48.828;9.064;2022-09-19T04:05:42;6.22;;;1.13;;
26113;SDS011;13966;48.828;9.064;2022-09-19T04:08:08;4.50;;;0.90;;
26113;SDS011;13966;48.828;9.064;2022-09-19T04:10:35;4.72;;;1.00;;
26113;SDS011;13966;48.828;9.064;2022-09-19T04:13:01;3.53;;;1.08;;
26113;SDS011;13966;48.828;9.064;2022-09-19T04:15:27;10.05;;;1.48;;
26113;SDS011;13966;48.828;9.064;2022-09-19T04:17:53;4.50;;;1.45;;
26113;SDS011;13966;48.828;9.064;2022-09-19T04:20:19;3.35;;;1.08;;
26113;SDS011;13966;48.828;9.064;2022-09-19T04:22:46;7.03;;;1.05;;
26113;SDS011;13966;48.828;9.064;2022-09-19T04:25:12;4.57;;;1.27;;
26113;SDS011;13966;48.828;9.064;2022-09-19T04:27:38;4.03;;;1.48;;
26113;SDS011;13966;48.828;9.064;2022-09-19T04:30:04;4.80;;;1.67;;
26113;SDS011;13966;48.828;9.064;2022-09-19T04:32:31;7.22;;;1.80;;
26113;SDS011;13966;48.828;9.064;2022-09-19T04:34:57;8.30;;;1.90;;
26113;SDS011;13966;48.828;9.064;2022-09-19T04:37:25;6.70;;;2.00;;
26113;SDS011;13966;48.828;9.064;2022-09-19T04:39:51;14.30;;;2.20;;
26113;SDS011;13966;48.828;9.064;2022-09-19T04:42:17;9.32;;;1.85;;
26113;SDS011;13966;48.828;9.064;2022-09-19T04:44:43;10.55;;;1.83;;
26113;SDS011;13966;48.828;9.064;2022-09-19T04:47:10;7.90;;;1.52;;
26113;SDS011;13966;48.828;9.064;2022-09-19T04:49:36;4.70;;;1.35;;
26113;SDS011;13966;48.828;9.064;2022-09-19T04:52:06;4.03;;;1.63;;
26113;SDS011;13966;48.828;9.064;2022-09-19T04:54:34;11.60;;;1.85;;
26113;SDS011;13966;48.828;9.064;2022-09-19T04:57:03;7.20;;;1.35;;
26113;SDS011;13966;48.828;9.064;2022-09-19T04:59:30;5.63;;;1.38;;
26113;SDS011;13966;48.828;9.064;2022-09-19T05:01:57;6.57;;;1.52;;
26113;SDS011;13966;48.828;9.064;2022-09-19T05:04:23;5.28;;;1.30;;
26113;SDS011;13966;48.828;9.064;2022-09-19T05:06:50;10.55;;;1.65;;
26113;SDS011;13966;48.828;9.064;2022-09-19T05:09:16;8.30;;;1.45;;
26113;SDS011;13966;48.828;9.064;2022-09-19T05:11:43;5.13;;;1.60;;
26113;SDS011;13966;48.828;9.064;2022-09-19T05:14:12;7.75;;;1.60;;
26113;SDS011;13966;48.828;9.064;2022-09-19T05:16:39;9.68;;;1.75;;
26113;SDS011;13966;48.828;9.064;2022-09-19T05:19:04;6.32;;;1.30;;
26113;SDS011;13966;48.828;9.064;2022-09-19T05:21:31;14.80;;;1.83;;
26113;SDS011;13966;48.828;9.064;2022-09-19T05:23:59;9.50;;;2.33;;
26113;SDS011;13966;48.828;9.064;2022-09-19T05:26:25;9.32;;;1.88;;
26113;SDS011;13966;48.828;9.064;2022-09-19T05:28:51;9.05;;;1.80;;
26113;SDS011;13966;48.828;9.064;2022-09-19T05:31:18;5.82;;;1.45;;
26113;SDS011;13966;48.828;9.064;2022-09-19T05:33:47;7.90;;;1.50;;
26113;SDS011;13966;48.828;9.064;2022-09-19T05:36:13;9.95;;;1.88;;
26113;SDS011;13966;48.828;9.064;2022-09-19T05:38:39;6.53;;;1.50;;
26113;SDS011;13966;48.828;9.064;2022-09-19T05:41:07;4.68;;;1.52;;
26113;SDS011;13966;48.828;9.064;2022-09-19T05:43:33;6.75;;;1.42;;
26113;SDS011;13966;48.828;9.064;2022-09-19T05:45:59;11.75;;;1.45;;
26113;SDS011;13966;48.828;9.064;2022-09-19T05:48:25;10.82;;;1.77;;
26113;SDS011;13966;48.828;9.064;2022-09-19T05:50:52;13.55;;;2.00;;
26113;SDS011;13966;48.828;9.064;2022-09-19T05:53:19;8.13;;;1.40;;
26113;SDS011;13966;48.828;9.064;2022-09-19T05:56:04;8.75;;;1.65;;
26113;SDS011;13966;48.828;9.064;2022-09-19T05:58:30;7.20;;;1.42;;
26113;SDS011;13966;48.828;9.064;2022-09-19T06:00:56;7.57;;;1.50;;
26113;SDS011;13966;48.828;9.064;2022-09-19T06:03:22;4.47;;;1.25;;
26113;SDS011;13966;48.828;9.064;2022-09-19T06:05:49;9.60;;;2.45;;
26113;SDS011;13966;48.828;9.064;2022-09-19T06:08:17;12.02;;;1.80;;
26113;SDS011;13966;48.828;9.064;2022-09-19T06:10:44;7.13;;;1.70;;
26113;SDS011;13966;48.828;9.064;2022-09-19T06:13:11;8.20;;;1.75;;
26113;SDS011;13966;48.828;9.064;2022-09-19T06:15:38;11.00;;;2.03;;
26113;SDS011;13966;48.828;9.064;2022-09-19T06:18:04;12.85;;;2.00;;
26113;SDS011;13966;48.828;9.064;2022-09-19T06:20:30;7.65;;;1.90;;
26113;SDS011;13966;48.828;9.064;2022-09-19T06:23:00;10.02;;;1.80;;
26113;SDS011;13966;48.828;9.064;2022-09-19T06:25:27;11.13;;;2.70;;
26113;SDS011;13966;48.828;9.064;2022-09-19T06:27:56;11.32;;;1.67;;
26113;SDS011;13966;48.828;9.064;2022-09-19T06:30:23;11.55;;;2.28;;
26113;SDS011;13966;48.828;9.064;2022-09-19T06:32:49;11.45;;;1.70;;
26113;SDS011;13966;48.828;9.064;2022-09-19T06:35:19;10.70;;;1.95;;
26113;SDS011;13966;48.828;9.064;2022-09-19T06:37:46;10.32;;;2.05;;
26113;SDS011;13966;48.828;9.064;2022-09-19T06:40:12;7.30;;;1.90;;
26113;SDS011;13966;48.828;9.064;2022-09-19T06:42:39;7.57;;;2.00;;
26113;SDS011;13966;48.828;9.064;2022-09-19T06:45:05;10.48;;;1.90;;
26113;SDS011;13966;48.828;9.064;2022-09-19T06:47:31;6.78;;;1.88;;
26113;SDS011;13966;48.828;9.064;2022-09-19T06:49:57;7.18;;;1.65;;
26113;SDS011;13966;48.828;9.064;2022-09-19T06:52:25;8.93;;;1.70;;
26113;SDS011;13966;48.828;9.064;2022-09-19T06:54:51;13.20;;;1.90;;
26113;SDS011;13966;48.828;9.064;2022-09-19T06:57:17;13.07;;;1.65;;
26113;SDS011;13966;48.828;9.064;2022-09-19T06:59:44;13.43;;;2.28;;
26113;SDS011;13966;48.828;9.064;2022-09-19T07:02:10;7.15;;;1.98;;
26113;SDS011;13966;48.828;9.064;2022-09-19T07:04:36;8.13;;;1.70;;
26113;SDS011;13966;48.828;9.064;2022-09-19T07:07:02;9.60;;;2.13;;
26113;SDS011;13966;48.828;9.064;2022-09-19T07:09:28;13.13;;;2.35;;
26113;SDS011;13966;48.828;9.064;2022-09-19T07:11:55;11.38;;;2.05;;
26113;SDS011;13966;48.828;9.064;2022-09-19T07:14:21;10.20;;;2.22;;
26113;SDS011;13966;48.828;9.064;2022-09-19T07:16:47;10.73;;;2.15;;
26113;SDS011;13966;48.828;9.064;2022-09-19T07:19:14;7.15;;;1.42;;
26113;SDS011;13966;48.828;9.064;2022-09-19T07:21:40;12.82;;;2.22;;
26113;SDS011;13966;48.828;9.064;2022-09-19T07:24:06;7.53;;;1.88;;
26113;SDS011;13966;48.828;9.064;2022-09-19T07:26:32;12.30;;;2.00;;
26113;SDS011;13966;48.828;9.064;2022-09-19T07:28:58;14.13;;;2.10;;
26113;SDS011;13966;48.828;9.064;2022-09-19T07:31:27;14.18;;;2.20;;
26113;SDS011;13966;48.828;9.064;2022-09-19T07:33:54;5.45;;;1.88;;
26113;SDS011;13966;48.828;9.064;2022-09-19T07:36:20;9.95;;;2.17;;
26113;SDS011;13966;48.828;9.064;2022-09-19T07:38:47;10.05;;;1.98;;
26113;SDS011;13966;48.828;9.064;2022-09-19T07:41:14;10.68;;;1.58;;
26113;SDS011;13966;48.828;9.064;2022-09-19T07:43:40;10.75;;;2.15;;
26113;SDS011;13966;48.828;9.064;2022-09-19T07:46:06;9.52;;;2.20;;
26113;SDS011;13966;48.828;9.064;2022-09-19T07:48:32;5.88;;;2.50;;
26113;SDS011;13966;48.828;9.064;2022-09-19T07:50:58;10.00;;;1.98;;
26113;SDS011;13966;48.828;9.064;2022-09-19T07:53:27;11.70;;;1.95;;
26113;SDS011;13966;48.828;9.064;2022-09-19T07:55:53;9.73;;;2.00;;
26113;SDS011;13966;48.828;9.064;2022-09-19T07:58:21;8.82;;;1.83;;
26113;SDS011;13966;48.828;9.064;2022-09-19T08:00:48;16.90;;;2.55;;
26113;SDS011;13966;48.828;9.064;2022-09-19T08:03:15;8.18;;;1.40;;
26113;SDS011;13966;48.828;9.064;2022-09-19T08:05:43;13.70;;;1.83;;
26113;SDS011;13966;48.828;9.064;2022-09-19T08:08:10;6.97;;;1.48;;
26113;SDS011;13966;48.828;9.064;2022-09-19T08:10:37;10.05;;;1.42;;
26113;SDS011;13966;48.828;9.064;2022-09-19T08:13:05;6.55;;;1.77;;
26113;SDS011;13966;48.828;9.064;2022-09-19T08:15:32;10.45;;;1.92;;
26113;SDS011;13966;48.828;9.064;2022-09-19T08:17:59;12.95;;;2.28;;
26113;SDS011;13966;48.828;9.064;2022-09-19T08:20:26;10.40;;;2.15;;
26113;SDS011;13966;48.828;9.064;2022-09-19T08:22:56;7.13;;;1.85;;
26113;SDS011;13966;48.828;9.064;2022-09-19T08:25:23;14.35;;;1.85;;
26113;SDS011;13966;48.828;9.064;2022-09-19T08:27:50;9.85;;;2.00;;
26113;SDS011;13966;48.828;9.064;2022-09-19T08:30:16;7.70;;;1.85;;
26113;SDS011;13966;48.828;9.064;2022-09-19T08:32:46;8.82;;;1.85;;
26113;SDS011;13966;48.828;9.064;2022-09-19T08:35:13;13.13;;;2.33;;
26113;SDS011;13966;48.828;9.064;2022-09-19T08:37:40;11.63;;;1.60;;
26113;SDS011;13966;48.828;9.064;2022-09-19T08:40:07;18.10;;;2.00;;
26113;SDS011;13966;48.828;9.064;2022-09-19T08:48:02;16.38;;;2.63;;
26113;SDS011;13966;48.828;9.064;2022-09-19T08:50:29;10.13;;;2.20;;
26113;SDS011;13966;48.828;9.064;2022-09-19T08:52:58;12.85;;;1.73;;
26113;SDS011;13966;48.828;9.064;2022-09-19T08:55:29;6.55;;;1.55;;
26113;SDS011;13966;48.828;9.064;2022-09-19T08:57:57;9.57;;;2.35;;
26113;SDS011;13966;48.828;9.064;2022-09-19T09:00:25;18.45;;;1.75;;
26113;SDS011;13966;48.828;9.064;2022-09-19T09:05:22;10.35;;;1.95;;
26113;SDS011;13966;48.828;9.064;2022-09-19T09:08:02;12.95;;;2.08;;
26113;SDS011;13966;48.828;9.064;2022-09-19T09:11:07;10.85;;;2.28;;
26113;SDS011;13966;48.828;9.064;2022-09-19T09:18:23;10.38;;;1.85;;
26113;SDS011;13966;48.828;9.064;2022-09-19T09:23:25;9.45;;;2.03;;
26113;SDS011;13966;48.828;9.064;2022-09-19T09:25:55;6.55;;;1.73;;
26113;SDS011;13966;48.828;9.064;2022-09-19T09:28:33;12.23;;;2.22;;
26113;SDS011;13966;48.828;9.064;2022-09-19T09:31:15;5.30;;;1.70;;
26113;SDS011;13966;48.828;9.064;2022-09-19T09:33:51;6.15;;;1.70;;
26113;SDS011;13966;48.828;9.064;2022-09-19T09:36:18;9.65;;;2.03;;
26113;SDS011;13966;48.828;9.064;2022-09-19T09:38:52;5.72;;;1.63;;
26113;SDS011;13966;48.828;9.064;2022-09-19T09:41:21;7.28;;;1.50;;
26113;SDS011;13966;48.828;9.064;2022-09-19T09:44:18;7.00;;;1.77;;
26113;SDS011;13966;48.828;9.064;2022-09-19T09:49:14;5.75;;;1.85;;
26113;SDS011;13966;48.828;9.064;2022-09-19T09:57:24;7.53;;;1.70;;
26113;SDS011;13966;48.828;9.064;2022-09-19T10:02:44;9.95;;;2.42;;
26113;SDS011;13966;48.828;9.064;2022-09-19T10:05:35;9.25;;;2.17;;
26113;SDS011;13966;48.828;9.064;2022-09-19T10:10:28;8.15;;;1.73;;
26113;SDS011;13966;48.828;9.064;2022-09-19T10:13:01;10.05;;;2.40;;
26113;SDS011;13966;48.828;9.064;2022-09-19T10:15:32;8.90;;;2.00;;
26113;SDS011;13966;48.828;9.064;2022-09-19T10:18:06;8.77;;;1.42;;
26113;SDS011;13966;48.828;9.064;2022-09-19T10:20:36;7.22;;;1.48;;
26113;SDS011;13966;48.828;9.064;2022-09-19T10:23:03;3.03;;;1.10;;
26113;SDS011;13966;48.828;9.064;2022-09-19T10:25:29;5.97;;;1.35;;
26113;SDS011;13966;48.828;9.064;2022-09-19T10:27:56;4.40;;;1.40;;
26113;SDS011;13966;48.828;9.064;2022-09-19T10:30:28;4.32;;;1.45;;
26113;SDS011;13966;48.828;9.064;2022-09-19T10:32:55;6.60;;;1.05;;
26113;SDS011;13966;48.828;9.064;2022-09-19T10:35:25;6.32;;;1.45;;
26113;SDS011;13966;48.828;9.064;2022-09-19T10:40:24;5.75;;;1.20;;
26113;SDS011;13966;48.828;9.064;2022-09-19T10:42:51;6.00;;;1.10;;
26113;SDS011;13966;48.828;9.064;2022-09-19T10:45:23;8.05;;;1.30;;
26113;SDS011;13966;48.828;9.064;2022-09-19T10:47:52;4.68;;;1.30;;
26113;SDS011;13966;48.828;9.064;2022-09-19T10:50:19;3.13;;;1.20;;
26113;SDS011;13966;48.828;9.064;2022-09-19T10:52:46;3.92;;;0.95;;
26113;SDS011;13966;48.828;9.064;2022-09-19T10:55:14;3.15;;;1.02;;
26113;SDS011;13966;48.828;9.064;2022-09-19T10:57:44;4.85;;;1.20;;
26113;SDS011;13966;48.828;9.064;2022-09-19T11:00:19;4.60;;;1.30;;
26113;SDS011;13966;48.828;9.064;2022-09-19T11:02:53;5.70;;;1.23;;
26113;SDS011;13966;48.828;9.064;2022-09-19T11:05:26;5.22;;;1.10;;
26113;SDS011;13966;48.828;9.064;2022-09-19T11:07:53;3.22;;;0.90;;
26113;SDS011;13966;48.828;9.064;2022-09-19T11:10:29;6.15;;;1.48;;
26113;SDS011;13966;48.828;9.064;2022-09-19T11:13:12;6.95;;;1.85;;
26113;SDS011;13966;48.828;9.064;2022-09-19T11:26:13;5.05;;;0.90;;
26113;SDS011;13966;48.828;9.064;2022-09-19T11:41:31;1.73;;;0.75;;
26113;SDS011;13966;48.828;9.064;2022-09-19T11:46:32;3.22;;;1.00;;
26113;SDS011;13966;48.828;9.064;2022-09-19T11:49:12;5.72;;;1.27;;
26113;SDS011;13966;48.828;9.064;2022-09-19T11:51:43;1.92;;;0.65;;
26113;SDS011;13966;48.828;9.064;2022-09-19T12:09:56;4.28;;;0.90;;
26113;SDS011;13966;48.828;9.064;2022-09-19T12:12:24;2.22;;;0.85;;
26113;SDS011;13966;48.828;9.064;2022-09-19T12:14:53;4.03;;;0.95;;
26113;SDS011;13966;48.828;9.064;2022-09-19T12:17:25;6.47;;;0.90;;
26113;SDS011;13966;48.828;9.064;2022-09-19T12:20:12;2.28;;;0.80;;
26113;SDS011;13966;48.828;9.064;2022-09-19T12:22:40;3.42;;;1.00;;
26113;SDS011;13966;48.828;9.064;2022-09-19T12:25:08;5.28;;;0.80;;
26113;SDS011;13966;48.828;9.064;2022-09-19T12:40:40;2.38;;;0.70;;
26113;SDS011;13966;48.828;9.064;2022-09-19T12:43:14;6.63;;;1.23;;
26113;SDS011;13966;48.828;9.064;2022-09-19T12:45:43;3.83;;;0.82;;
26113;SDS011;13966;48.828;9.064;2022-09-19T12:48:19;7.25;;;1.02;;
26113;SDS011;13966;48.828;9.064;2022-09-19T12:50:51;2.85;;;0.90;;
26113;SDS011;13966;48.828;9.064;2022-09-19T12:53:35;6.32;;;1.13;;
26113;SDS011;13966;48.828;9.064;2022-09-19T12:56:04;6.05;;;1.10;;
26113;SDS011;13966;48.828;9.064;2022-09-19T13:01:10;6.50;;;1.08;;
26113;SDS011;13966;48.828;9.064;2022-09-19T13:03:40;5.05;;;0.93;;
26113;SDS011;13966;48.828;9.064;2022-09-19T13:06:15;7.05;;;1.00;;
26113;SDS011;13966;48.828;9.064;2022-09-19T13:11:21;7.90;;;1.33;;
26113;SDS011;13966;48.828;9.064;2022-09-19T13:16:16;4.90;;;1.10;;
26113;SDS011;13966;48.828;9.064;2022-09-19T13:18:43;3.70;;;1.00;;
26113;SDS011;13966;48.828;9.064;2022-09-19T13:21:47;5.85;;;1.20;;
26113;SDS011;13966;48.828;9.064;2022-09-19T13:27:12;5.20;;;1.25;;
26113;SDS011;13966;48.828;9.064;2022-09-19T13:34:59;2.85;;;0.88;;
26113;SDS011;13966;48.828;9.064;2022-09-19T13:39:53;5.38;;;0.98;;
26113;SDS011;13966;48.828;9.064;2022-09-19T13:42:23;5.15;;;1.08;;
26113;SDS011;13966;48.828;9.064;2022-09-19T13:44:54;3.20;;;0.75;;
26113;SDS011;13966;48.828;9.064;2022-09-19T13:47:27;3.17;;;1.17;;
26113;SDS011;13966;48.828;9.064;2022-09-19T13:50:04;6.25;;;1.17;;
26113;SDS011;13966;48.828;9.064;2022-09-19T13:52:37;4.40;;;1.27;;
26113;SDS011;13966;48.828;9.064;2022-09-19T13:55:12;3.70;;;0.88;;
26113;SDS011;13966;48.828;9.064;2022-09-19T13:57:42;2.80;;;0.90;;
26113;SDS011;13966;48.828;9.064;2022-09-19T14:00:30;7.18;;;1.27;;
26113;SDS011;13966;48.828;9.064;2022-09-19T14:03:06;5.85;;;0.90;;
26113;SDS011;13966;48.828;9.064;2022-09-19T14:05:33;4.43;;;1.00;;
26113;SDS011;13966;48.828;9.064;2022-09-19T14:08:05;1.83;;;0.80;;
26113;SDS011;13966;48.828;9.064;2022-09-19T14:10:44;3.70;;;0.90;;
26113;SDS011;13966;48.828;9.064;2022-09-19T14:18:51;3.17;;;1.13;;
26113;SDS011;13966;48.828;9.064;2022-09-19T14:24:15;1.05;;;0.60;;
26113;SDS011;13966;48.828;9.064;2022-09-19T14:26:46;1.58;;;0.70;;
26113;SDS011;13966;48.828;9.064;2022-09-19T14:29:25;2.22;;;0.77;;
26113;SDS011;13966;48.828;9.064;2022-09-19T14:32:02;0.97;;;0.53;;
26113;SDS011;13966;48.828;9.064;2022-09-19T14:34:57;2.13;;;0.65;;
26113;SDS011;13966;48.828;9.064;2022-09-19T14:47:36;3.35;;;0.95;;
26113;SDS011;13966;48.828;9.064;2022-09-19T14:50:25;4.20;;;0.75;;
26113;SDS011;13966;48.828;9.064;2022-09-19T14:53:12;4.53;;;1.30;;
26113;SDS011;13966;48.828;9.064;2022-09-19T14:55:46;3.10;;;0.93;;
26113;SDS011;13966;48.828;9.064;2022-09-19T14:58:22;5.00;;;0.73;;
26113;SDS011;13966;48.828;9.064;2022-09-19T15:00:51;4.25;;;1.00;;
26113;SDS011;13966;48.828;9.064;2022-09-19T15:03:20;3.13;;;1.23;;
26113;SDS011;13966;48.828;9.064;2022-09-19T15:05:46;3.92;;;1.25;;
26113;SDS011;13966;48.828;9.064;2022-09-19T15:08:14;3.45;;;1.42;;
26113;SDS011;13966;48.828;9.064;2022-09-19T15:10:42;3.90;;;1.55;;
26113;SDS011;13966;48.828;9.064;2022-09-19T15:13:20;4.10;;;1.48;;
26113;SDS011;13966;48.828;9.064;2022-09-19T15:15:50;6.60;;;1.30;;
26113;SDS011;13966;48.828;9.064;2022-09-19T15:18:30;3.40;;;1.40;;
26113;SDS011;13966;48.828;9.064;2022-09-19T15:21:00;6.03;;;1.52;;
26113;SDS011;13966;48.828;9.064;2022-09-19T15:23:28;6.90;;;1.70;;
26113;SDS011;13966;48.828;9.064;2022-09-19T15:25:55;5.93;;;1.48;;
26113;SDS011;13966;48.828;9.064;2022-09-19T15:28:25;3.45;;;1.45;;
26113;SDS011;13966;48.828;9.064;2022-09-19T15:30:52;6.90;;;1.67;;
26113;SDS011;13966;48.828;9.064;2022-09-19T15:33:24;2.95;;;1.30;;
26113;SDS011;13966;48.828;9.064;2022-09-19T15:35:51;4.15;;;1.40;;
26113;SDS011;13966;48.828;9.064;2022-09-19T15:40:48;5.63;;;1.88;;
26113;SDS011;13966;48.828;9.064;2022-09-19T15:43:14;5.53;;;2.15;;
26113;SDS011;13966;48.828;9.064;2022-09-19T15:48:12;5.13;;;2.30;;
26113;SDS011;13966;48.828;9.064;2022-09-19T15:50:40;6.55;;;2.60;;
26113;SDS011;13966;48.828;9.064;2022-09-19T15:53:14;5.38;;;1.60;;
26113;SDS011;13966;48.828;9.064;2022-09-19T15:55:41;4.60;;;1.42;;
26113;SDS011;13966;48.828;9.064;2022-09-19T15:58:13;5.60;;;1.52;;
26113;SDS011;13966;48.828;9.064;2022-09-19T16:00:41;5.40;;;1.45;;
26113;SDS011;13966;48.828;9.064;2022-09-19T16:03:16;4.28;;;1.27;;
26113;SDS011;13966;48.828;9.064;2022-09-19T16:05:43;5.60;;;1.10;;
26113;SDS011;13966;48.828;9.064;2022-09-19T16:08:23;4.93;;;1.10;;
26113;SDS011;13966;48.828;9.064;2022-09-19T16:13:53;3.75;;;1.15;;
26113;SDS011;13966;48.828;9.064;2022-09-19T16:16:33;2.17;;;0.90;;
26113;SDS011;13966;48.828;9.064;2022-09-19T16:18:59;5.10;;;0.90;;
26113;SDS011;13966;48.828;9.064;2022-09-19T16:21:32;2.47;;;0.90;;
26113;SDS011;13966;48.828;9.064;2022-09-19T16:23:59;3.45;;;1.10;;
26113;SDS011;13966;48.828;9.064;2022-09-19T16:26:26;3.28;;;0.90;;
26113;SDS011;13966;48.828;9.064;2022-09-19T16:28:53;2.53;;;1.00;;
26113;SDS011;13966;48.828;9.064;2022-09-19T16:33:50;2.10;;;0.95;;
26113;SDS011;13966;48.828;9.064;2022-09-19T16:36:17;3.28;;;1.10;;
26113;SDS011;13966;48.828;9.064;2022-09-19T16:41:34;2.55;;;1.00;;
26113;SDS011;13966;48.828;9.064;2022-09-19T16:44:01;6.72;;;1.48;;
26113;SDS011;13966;48.828;9.064;2022-09-19T16:46:28;3.28;;;1.10;;
26113;SDS011;13966;48.828;9.064;2022-09-19T16:48:55;4.65;;;1.10;;
26113;SDS011;13966;48.828;9.064;2022-09-19T16:51:21;3.63;;;1.20;;
26113;SDS011;13966;48.828;9.064;2022-09-19T16:53:49;4.15;;;1.27;;
26113;SDS011;13966;48.828;9.064;2022-09-19T16:56:16;3.28;;;1.00;;
26113;SDS011;13966;48.828;9.064;2022-09-19T16:58:43;2.75;;;1.25;;
26113;SDS011;13966;48.828;9.064;2022-09-19T17:01:09;3.78;;;1.25;;
26113;SDS011;13966;48.828;9.064;2022-09-19T17:03:35;5.35;;;1.63;;
26113;SDS011;13966;48.828;9.064;2022-09-19T17:06:01;4.47;;;1.27;;
26113;SDS011;13966;48.828;9.064;2022-09-19T17:08:29;6.82;;;1.77;;
26113;SDS011;13966;48.828;9.064;2022-09-19T17:10:55;3.72;;;1.63;;
26113;SDS011;13966;48.828;9.064;2022-09-19T17:13:23;4.60;;;2.05;;
26113;SDS011;13966;48.828;9.064;2022-09-19T17:18:15;3.83;;;2.10;;
26113;SDS011;13966;48.828;9.064;2022-09-19T17:20:42;4.25;;;1.98;;
26113;SDS011;13966;48.828;9.064;2022-09-19T17:23:15;4.22;;;1.60;;
26113;SDS011;13966;48.828;9.064;2022-09-19T17:28:11;4.85;;;2.45;;
26113;SDS011;13966;48.828;9.064;2022-09-19T17:30:37;4.05;;;2.50;;
26113;SDS011;13966;48.828;9.064;2022-09-19T17:33:04;4.90;;;3.28;;
26113;SDS011;13966;48.828;9.064;2022-09-19T17:35:30;4.40;;;2.75;;
26113;SDS011;13966;48.828;9.064;2022-09-19T17:37:56;5.75;;;2.80;;
26113;SDS011;13966;48.828;9.064;2022-09-19T17:40:23;4.15;;;2.25;;
26113;SDS011;13966;48.828;9.064;2022-09-19T17:42:51;2.63;;;1.70;;
26113;SDS011;13966;48.828;9.064;2022-09-19T17:45:17;4.65;;;2.00;;
26113;SDS011;13966;48.828;9.064;2022-09-19T17:47:50;5.43;;;2.00;;
26113;SDS011;13966;48.828;9.064;2022-09-19T17:50:16;5.38;;;2.70;;
26113;SDS011;13966;48.828;9.064;2022-09-19T17:52:42;5.80;;;2.47;;
26113;SDS011;13966;48.828;9.064;2022-09-19T17:55:08;7.13;;;2.97;;
26113;SDS011;13966;48.828;9.064;2022-09-19T17:57:35;5.93;;;2.92;;